Terminal Aerodrome Forecast
Issued by NWS

Home | Current Version | Previous Version | Text Only | Print | Product List | Glossary On
Versions: 1 2 3 4 5 6 7 8 9 10 11 12 13 14 15 16 17 18 19 20 21 22 23 24 25 26 27 28 29 30 31
840
FTAK31 PANC 211735
TAFATK
TAF
PATK 211735Z 2118/2218 01005KT P6SM BKN150
     FM220000 01004KT 6SM -SN SCT030 OVC045
     FM220600 VRB04KT P6SM OVC050=

USA.gov is the U.S. government's official web portal to all federal, state and local government web resources and services.